Number One, Kentucky
Current Conditions -  °F | °C
As of 5:56 AM on Sunday 23 Nov 2014 (Local Time) from KEKQ Reporting Station
Overcast Overcast  
Wind Chill: 57°   Ceiling: 5000
Heat Index: 57°   Visibility: 10mi
Dew Point: 43°   Wind: 15mph
Humidity: 60%   Direction: 170°S
Pressure: 30.02"   Gusts: 21mph
Location:  36.8129°N, 84.8215°W
Report Text: KEKQ 231056Z AUTO 17013G18KT 10SM OVC050 14/06 A3002 RMK AO2 T01380061 SLP167
Loading
Personal Weather Stations






























Interactive Weather Map New forecast layout! Learn more

10-Day Weather Forecast

Advertisements
Track Severe Weather on mobile